Time;durP1;ratioP1;P1;durP2;ratioP2;P2;SDS_P1;SDS_P2;PMS_P1;PMS_P2;Temp;Humidity;BMP_temperature;BMP_pressure;BME280_temperature;BME280_humidity;BME280_pressure;Samples;Min_cycle;Max_cycle;Signal;HPM_P1;HPM_P2
2022/03/01 00:03:33;;;;;;;29.48;15.52;;;;;;;-0.12;100.00;102843.56;10197461;29;20032;-78
2022/03/01 00:08:36;;;;;;;30.75;15.73;;;;;;;-0.23;100.00;102823.72;10215715;29;20041;-79
2022/03/01 00:13:36;;;;;;;29.50;15.48;;;;;;;-0.26;100.00;102828.53;10230318;29;20044;-79
2022/03/01 00:18:37;;;;;;;33.83;16.83;;;;;;;-0.19;100.00;102843.22;10199948;29;20396;-79
2022/03/01 00:23:39;;;;;;;27.80;16.23;;;;;;;-0.23;100.00;102834.53;10214910;29;20035;-79
2022/03/01 00:28:39;;;;;;;30.85;16.73;;;;;;;-0.33;100.00;102822.81;10232700;29;20525;-79
2022/03/01 00:33:45;;;;;;;32.97;15.73;;;;;;;-0.36;100.00;102803.28;10223703;29;20051;-78
2022/03/01 00:38:45;;;;;;;31.33;15.53;;;;;;;-0.14;100.00;102826.59;10207178;29;20035;-79
2022/03/01 00:43:46;;;;;;;28.23;17.05;;;;;;;-0.10;100.00;102838.88;10222846;29;20058;-79
2022/03/01 00:48:46;;;;;;;29.27;14.65;;;;;;;-0.15;100.00;102836.56;10238438;29;20027;-79
2022/03/01 00:53:47;;;;;;;32.10;16.48;;;;;;;-0.99;100.00;102714.94;10238027;29;20038;-79
2022/03/01 00:58:48;;;;;;;32.72;16.77;;;;;;;-0.37;100.00;102837.59;10237194;29;20121;-79
2022/03/01 01:03:48;;;;;;;32.05;14.65;;;;;;;-0.31;100.00;102856.00;10238741;29;20039;-79
2022/03/01 01:08:49;;;;;;;29.15;14.80;;;;;;;-0.30;100.00;102849.59;10238088;29;20031;-79
2022/03/01 01:13:49;;;;;;;29.20;15.02;;;;;;;-0.26;100.00;102861.03;10221006;29;20043;-80
2022/03/01 01:18:50;;;;;;;31.15;15.20;;;;;;;-0.43;100.00;102844.41;10237504;29;20028;-79
2022/03/01 01:23:51;;;;;;;27.92;14.07;;;;;;;-0.59;100.00;102810.69;10237304;29;20035;-80
2022/03/01 01:28:52;;;;;;;26.65;14.63;;;;;;;-0.70;100.00;102804.38;10260390;29;20048;-80
2022/03/01 01:33:53;;;;;;;30.55;15.68;;;;;;;-0.56;100.00;102842.88;10245832;29;20051;-80
2022/03/01 01:38:54;;;;;;;33.20;17.50;;;;;;;-0.80;100.00;102835.03;10245280;29;20039;-80
2022/03/01 01:43:54;;;;;;;28.77;15.13;;;;;;;-1.12;100.00;102817.84;10261259;29;20062;-80
2022/03/01 01:48:55;;;;;;;28.63;14.70;;;;;;;-0.83;100.00;102838.84;10260932;29;20032;-80
2022/03/01 01:53:55;;;;;;;29.77;14.77;;;;;;;-0.91;100.00;102826.00;10244421;29;20430;-80
2022/03/01 01:58:56;;;;;;;30.80;15.18;;;;;;;-0.93;100.00;102836.09;10228668;29;20032;-80
2022/03/01 02:03:58;;;;;;;32.00;17.35;;;;;;;-0.96;100.00;102830.06;10252942;29;20051;-80
2022/03/01 02:08:59;;;;;;;26.70;14.40;;;;;;;-1.03;100.00;102836.00;10243562;29;20035;-80
2022/03/01 02:14:00;;;;;;;30.10;15.60;;;;;;;-1.21;100.00;102810.53;10243954;29;20407;-80
2022/03/01 02:19:00;;;;;;;28.73;15.80;;;;;;;-1.19;100.00;102816.66;10243612;29;20102;-80
2022/03/01 02:24:01;;;;;;;27.50;15.18;;;;;;;-1.10;100.00;102826.69;10242132;29;20078;-80
2022/03/01 02:29:01;;;;;;;28.10;15.02;;;;;;;-1.17;100.00;102817.38;10227781;29;20027;-79
2022/03/01 02:34:02;;;;;;;29.25;15.50;;;;;;;-1.27;100.00;102805.63;10259601;29;20112;-79
2022/03/01 02:39:03;;;;;;;30.17;16.08;;;;;;;-1.20;100.00;102825.75;10239819;29;20051;-79
2022/03/01 02:44:04;;;;;;;30.10;15.70;;;;;;;-1.30;100.00;102817.56;10258358;29;20058;-80
2022/03/01 02:49:06;;;;;;;27.60;14.27;;;;;;;-1.50;100.00;102804.84;10226696;29;20495;-80
2022/03/01 02:54:06;;;;;;;34.70;15.27;;;;;;;-1.33;100.00;102828.63;10226230;29;20078;-79
2022/03/01 02:59:07;;;;;;;31.53;15.80;;;;;;;-1.32;100.00;102824.09;10226816;29;20046;-79
2022/03/01 03:04:07;;;;;;;28.10;14.80;;;;;;;-1.66;100.00;102762.91;10226674;29;20035;-80
2022/03/01 03:09:08;;;;;;;31.13;15.70;;;;;;;-1.35;100.00;102817.06;10242221;29;20510;-79
2022/03/01 03:14:08;;;;;;;30.33;15.53;;;;;;;-1.40;100.00;102815.78;10241726;29;20032;-79
2022/03/01 03:19:10;;;;;;;28.93;15.27;;;;;;;-1.45;100.00;102818.81;10257521;29;20035;-79
2022/03/01 03:24:11;;;;;;;31.37;15.20;;;;;;;-1.58;100.00;102813.59;10256473;29;20043;-79
2022/03/01 03:29:12;;;;;;;29.20;15.90;;;;;;;-1.55;100.00;102823.28;10225465;29;20031;-79
2022/03/01 03:34:12;;;;;;;31.30;15.13;;;;;;;-1.78;100.00;102801.72;10256986;29;20062;-80
2022/03/01 03:39:13;;;;;;;29.63;15.13;;;;;;;-1.69;100.00;102825.28;10256564;29;20514;-79
2022/03/01 03:44:13;;;;;;;30.38;15.30;;;;;;;-2.25;100.00;102729.06;10224663;29;20031;-79
2022/03/01 03:49:14;;;;;;;30.77;16.07;;;;;;;-1.89;100.00;102789.09;10271645;28;20031;-79
2022/03/01 03:54:14;;;;;;;31.25;15.75;;;;;;;-1.88;100.00;102784.56;10240428;29;20023;-79
2022/03/01 03:59:14;;;;;;;34.17;16.53;;;;;;;-1.74;100.00;102794.22;10256194;29;20035;-79
2022/03/01 04:04:15;;;;;;;31.98;16.33;;;;;;;-2.11;100.00;102735.16;10255231;29;20043;-79
2022/03/01 04:09:16;;;;;;;32.10;16.45;;;;;;;-1.67;100.00;102795.47;10239441;29;20550;-79
2022/03/01 04:14:17;;;;;;;28.73;14.98;;;;;;;-1.58;100.00;102802.78;10255130;29;20039;-79
2022/03/01 04:19:17;;;;;;;29.07;14.80;;;;;;;-1.89;100.00;102755.84;10255504;29;20049;-79
2022/03/01 04:24:18;;;;;;;33.47;15.33;;;;;;;-1.74;100.00;102761.81;10254188;29;20118;-79
2022/03/01 04:29:19;;;;;;;30.17;15.77;;;;;;;-1.40;100.00;102791.44;10239974;29;20535;-78
2022/03/01 04:34:20;;;;;;;33.70;16.45;;;;;;;-1.36;100.00;102790.22;10253212;29;20051;-79
2022/03/01 04:39:21;;;;;;;33.30;16.23;;;;;;;-1.34;100.00;102777.44;10238523;29;20042;-79
2022/03/01 04:44:21;;;;;;;29.35;15.25;;;;;;;-1.31;100.00;102782.56;10238256;29;20031;-79
2022/03/01 04:49:22;;;;;;;31.53;16.27;;;;;;;-1.32;100.00;102781.72;10238317;29;20039;-79
2022/03/01 04:54:23;;;;;;;31.37;16.53;;;;;;;-1.32;100.00;102787.13;10254420;29;20040;-78
2022/03/01 04:59:23;;;;;;;32.88;14.70;;;;;;;-1.35;100.00;102781.09;10253981;29;20038;-79
2022/03/01 05:04:24;;;;;;;29.98;14.48;;;;;;;-1.42;100.00;102749.19;10252593;29;20138;-79
2022/03/01 05:09:24;;;;;;;27.27;13.73;;;;;;;-1.21;100.00;102767.28;10221487;29;20054;-79
2022/03/01 05:14:25;;;;;;;26.03;14.33;;;;;;;-1.04;100.00;102788.31;10237541;29;20027;-79
2022/03/01 05:19:26;;;;;;;28.73;14.30;;;;;;;-0.95;100.00;102789.41;10253335;29;20039;-79
2022/03/01 05:24:27;;;;;;;30.67;16.20;;;;;;;-0.93;100.00;102786.53;10236287;29;20090;-78
2022/03/01 05:29:27;;;;;;;26.33;14.52;;;;;;;-0.85;100.00;102771.41;10253963;29;20476;-78
2022/03/01 05:34:29;;;;;;;30.17;14.95;;;;;;;-0.73;100.00;102791.09;10237599;29;20054;-78
2022/03/01 05:39:29;;;;;;;27.67;13.35;;;;;;;-0.72;100.00;102768.47;10252115;29;20046;-78
2022/03/01 05:44:30;;;;;;;27.23;14.25;;;;;;;-0.63;100.00;102767.66;10252525;29;20039;-79
2022/03/01 05:49:31;;;;;;;27.23;13.95;;;;;;;-0.58;100.00;102758.28;10237051;29;20052;-79
2022/03/01 05:54:32;;;;;;;27.83;14.40;;;;;;;-0.97;100.00;102701.28;10253343;29;20035;-79
2022/03/01 05:59:32;;;;;;;26.10;14.18;;;;;;;-0.59;100.00;102773.66;10252046;29;20062;-79
2022/03/01 06:04:33;;;;;;;28.95;14.38;;;;;;;-0.47;100.00;102785.28;10251410;29;20040;-79
2022/03/01 06:09:34;;;;;;;24.13;13.57;;;;;;;-0.53;100.00;102772.28;10252380;29;20126;-79
2022/03/01 06:14:35;;;;;;;26.73;14.00;;;;;;;-0.52;100.00;102776.69;10240895;29;20415;-79
2022/03/01 06:19:36;;;;;;;26.75;14.93;;;;;;;-0.51;100.00;102776.56;10243645;29;20046;-79
2022/03/01 06:24:39;;;;;;;26.90;14.98;;;;;;;-0.52;100.00;102773.97;10259459;29;20039;-79
2022/03/01 06:29:42;;;;;;;30.90;14.65;;;;;;;-0.44;100.00;102803.94;10240327;29;20125;-79
2022/03/01 06:34:42;;;;;;;29.52;15.50;;;;;;;-0.52;100.00;102796.47;10218225;29;20063;-79
2022/03/01 06:39:44;;;;;;;29.33;15.63;;;;;;;-0.44;100.00;102809.34;10218747;29;20058;-80
2022/03/01 06:44:45;;;;;;;28.88;15.93;;;;;;;-0.35;100.00;102819.38;10233833;29;20031;-79
2022/03/01 06:49:46;;;;;;;32.30;16.85;;;;;;;-0.31;100.00;102820.81;10257831;29;20059;-80
2022/03/01 06:54:47;;;;;;;31.63;18.13;;;;;;;-0.14;100.00;102854.53;10258841;29;20035;-79
2022/03/01 06:59:53;;;;;;;37.20;20.08;;;;;;;0.01;100.00;102835.22;10226485;29;20116;-79
2022/03/01 07:04:54;;;;;;;31.27;17.75;;;;;;;0.18;100.00;102811.03;10242315;29;20115;-79
2022/03/01 07:09:55;;;;;;;33.67;17.77;;;;;;;0.32;100.00;102795.38;10241886;29;20055;-80
2022/03/01 07:14:56;;;;;;;31.70;17.92;;;;;;;0.60;100.00;102837.94;10257315;29;20198;-80
2022/03/01 07:19:57;;;;;;;29.02;18.17;;;;;;;0.60;100.00;102799.16;10240647;29;20035;-80
2022/03/01 07:24:58;;;;;;;33.55;17.55;;;;;;;0.89;100.00;102831.69;10241902;28;20031;-80
2022/03/01 07:30:00;;;;;;;36.13;17.70;;;;;;;0.93;100.00;102800.56;10240065;29;20087;-80
2022/03/01 07:35:02;;;;;;;30.00;17.38;;;;;;;1.15;100.00;102814.81;10240350;29;20115;-79
2022/03/01 07:40:03;;;;;;;34.15;18.50;;;;;;;1.36;100.00;102822.78;10256173;29;20083;-79
2022/03/01 07:45:04;;;;;;;35.90;18.08;;;;;;;1.58;100.00;102832.47;10224595;29;20040;-79
2022/03/01 07:50:06;;;;;;;31.08;18.17;;;;;;;1.80;100.00;102842.97;10218747;29;20023;-78
2022/03/01 07:55:09;;;;;;;31.70;17.20;;;;;;;1.93;100.00;102830.94;10182452;29;20047;-80
2022/03/01 08:00:10;;;;;;;28.05;15.95;;;;;;;2.16;100.00;102828.69;10220840;29;20114;-79
2022/03/01 08:05:10;;;;;;;28.33;16.10;;;;;;;2.52;100.00;102832.34;10230500;29;20027;-80
2022/03/01 08:10:11;;;;;;;29.85;16.13;;;;;;;2.87;100.00;102841.53;10202500;29;20082;-80
2022/03/01 08:15:12;;;;;;;27.15;15.13;;;;;;;3.10;100.00;102847.38;10203320;29;20571;-80
2022/03/01 08:20:14;;;;;;;25.25;14.38;;;;;;;3.21;100.00;102843.56;10218420;29;20035;-80
2022/03/01 08:25:15;;;;;;;25.40;14.30;;;;;;;3.19;100.00;102843.69;10191957;29;20051;-80
2022/03/01 08:30:17;;;;;;;25.45;14.57;;;;;;;3.25;100.00;102831.34;10219797;29;20043;-79
2022/03/01 08:35:20;;;;;;;28.08;13.93;;;;;;;3.44;100.00;102849.34;10236306;28;20111;-80
2022/03/01 08:40:22;;;;;;;29.67;14.43;;;;;;;3.53;100.00;102847.53;10198244;29;20036;-81
2022/03/01 08:45:23;;;;;;;20.95;13.02;;;;;;;3.66;100.00;102864.31;10214023;29;20506;-79
2022/03/01 08:50:24;;;;;;;23.80;13.77;;;;;;;3.70;100.00;102845.78;10210739;29;20027;-79
2022/03/01 08:55:26;;;;;;;22.17;12.68;;;;;;;3.82;100.00;102864.44;10237929;29;20019;-79
2022/03/01 09:00:27;;;;;;;25.10;13.88;;;;;;;3.93;100.00;102846.09;10252241;29;20039;-80
2022/03/01 09:05:28;;;;;;;21.73;12.38;;;;;;;4.03;100.00;102838.63;10237100;29;20129;-80
2022/03/01 09:10:29;;;;;;;23.17;12.98;;;;;;;4.21;100.00;102846.72;10237570;29;21123;-80
2022/03/01 09:15:32;;;;;;;25.13;13.43;;;;;;;4.33;100.00;102841.84;10253587;29;20027;-80
2022/03/01 09:20:33;;;;;;;24.73;12.90;;;;;;;4.44;100.00;102831.50;10222184;29;20035;-79
2022/03/01 09:25:35;;;;;;;21.63;12.32;;;;;;;3.63;100.00;102680.25;10234033;29;20035;-80
2022/03/01 09:30:37;;;;;;;21.75;12.57;;;;;;;4.87;100.00;102855.97;10236384;29;20070;-80
2022/03/01 09:35:38;;;;;;;19.52;12.50;;;;;;;5.02;100.00;102851.56;10235988;29;20051;-80
2022/03/01 09:40:39;;;;;;;20.40;12.52;;;;;;;5.18;100.00;102856.16;10236836;29;20043;-80
2022/03/01 09:45:39;;;;;;;22.48;12.00;;;;;;;5.45;100.00;102844.03;10221061;28;20050;-80
2022/03/01 09:50:41;;;;;;;21.10;11.70;;;;;;;5.19;100.00;102764.22;10244639;29;20032;-80
2022/03/01 09:55:42;;;;;;;21.40;11.43;;;;;;;5.86;100.00;102821.28;10226538;29;20492;-82
2022/03/01 10:00:45;;;;;;;20.60;11.88;;;;;;;6.05;100.00;102825.50;10277460;29;20031;-81
2022/03/01 10:05:45;;;;;;;21.92;12.00;;;;;;;6.26;100.00;102822.16;10260392;29;20027;-81
2022/03/01 10:10:53;;;;;;;21.85;11.55;;;;;;;6.25;100.00;102825.94;10244058;29;20051;-81
2022/03/01 10:16:06;;;;;;;17.88;11.18;;;;;;;6.49;100.00;102805.84;10242548;29;20031;-81
2022/03/01 10:21:11;;;;;;;19.92;11.65;;;;;;;5.95;100.00;102696.38;10237895;29;20043;-81
2022/03/01 10:26:20;;;;;;;21.77;11.70;;;;;;;6.59;100.00;102822.84;10236766;29;20035;-81
2022/03/01 10:31:31;;;;;;;19.08;12.32;;;;;;;6.35;100.00;102787.44;10240603;29;20506;-81
2022/03/01 10:36:35;;;;;;;21.45;12.55;;;;;;;6.65;99.70;102824.88;10223717;29;20082;-81
2022/03/01 10:41:39;;;;;;;19.48;12.20;;;;;;;6.41;99.84;102740.22;10236732;29;20094;-82
2022/03/01 10:46:41;;;;;;;21.95;10.90;;;;;;;7.26;96.17;102829.59;10253544;29;20104;-81
2022/03/01 10:51:48;;;;;;;20.23;11.48;;;;;;;7.54;96.59;102829.81;10210753;29;20095;-82
2022/03/01 10:56:50;;;;;;;22.05;12.35;;;;;;;7.43;94.43;102765.34;10236825;29;20370;-82
2022/03/01 11:01:51;;;;;;;17.20;10.73;;;;;;;7.77;92.67;102772.22;10206381;29;20106;-82
2022/03/01 11:06:59;;;;;;;18.38;11.27;;;;;;;8.43;92.13;102815.28;10222614;29;20035;-82
2022/03/01 11:12:00;;;;;;;18.63;11.48;;;;;;;8.48;85.32;102796.34;10233531;29;20047;-82
2022/03/01 11:17:13;;;;;;;19.02;11.10;;;;;;;9.05;85.70;102811.09;10219121;29;20043;-82
2022/03/01 11:22:32;;;;;;;22.13;11.68;;;;;;;9.14;84.71;102798.09;10269643;29;20031;-83
2022/03/01 11:27:42;;;;;;;18.00;11.52;;;;;;;9.74;82.87;102802.16;10233884;29;20427;-82
2022/03/01 11:32:45;;;;;;;18.40;11.07;;;;;;;9.36;81.05;102805.22;10222327;29;20038;-82
2022/03/01 11:37:46;;;;;;;19.08;10.68;;;;;;;9.47;80.60;102815.72;10239864;29;20118;-82
2022/03/01 11:42:48;;;;;;;19.00;11.57;;;;;;;9.24;80.76;102806.81;10254192;29;20053;-81
2022/03/01 11:47:49;;;;;;;18.60;11.23;;;;;;;9.23;82.13;102805.97;10253211;29;20041;-82
2022/03/01 11:52:56;;;;;;;17.88;10.43;;;;;;;9.53;81.64;102808.56;10253428;29;20054;-83
2022/03/01 11:57:56;;;;;;;17.33;11.00;;;;;;;9.60;79.18;102798.44;10270710;29;20027;-80
2022/03/01 12:02:58;;;;;;;17.73;10.40;;;;;;;9.55;80.15;102809.22;10236995;29;20039;-82
2022/03/01 12:07:58;;;;;;;19.08;10.93;;;;;;;9.24;79.99;102784.84;10238291;29;20091;-82
2022/03/01 12:13:06;;;;;;;18.83;12.35;;;;;;;8.68;81.53;102780.97;10251243;29;20122;-82
2022/03/01 12:18:16;;;;;;;;;;;;;;;8.82;79.66;102798.41;10252902;28;20035;-82
2022/03/01 12:23:27;;;;;;;19.08;11.35;;;;;;;8.68;82.29;102769.97;10252504;29;19919;-81
2022/03/01 12:28:33;;;;;;;15.98;10.93;;;;;;;8.89;80.60;102787.50;10237500;29;20031;-83
2022/03/01 12:33:33;;;;;;;17.65;11.13;;;;;;;8.97;82.99;102790.13;10236516;29;20031;-83
2022/03/01 12:38:34;;;;;;;20.92;12.02;;;;;;;9.18;82.67;102791.16;10235720;29;20047;-83
2022/03/01 12:43:34;;;;;;;16.75;11.05;;;;;;;9.32;80.94;102775.59;10189830;29;20047;-84
2022/03/01 12:48:42;;;;;;;19.92;11.48;;;;;;;9.25;80.65;102759.06;10207151;29;20082;-82
2022/03/01 12:54:10;;;;;;;22.88;11.65;;;;;;;9.30;85.94;102789.53;10196438;29;20038;-82
2022/03/01 12:59:12;;;;;;;16.23;10.73;;;;;;;9.31;82.31;102785.75;10230726;29;20084;-82
2022/03/01 13:04:13;;;;;;;23.42;11.73;;;;;;;9.12;84.48;102726.00;10213150;29;20028;-82
2022/03/01 13:09:14;;;;;;;16.98;11.32;;;;;;;9.48;82.83;102773.41;10195277;29;20449;-82
2022/03/01 13:14:19;;;;;;;18.55;11.85;;;;;;;9.45;84.17;102773.81;10211754;29;20039;-82
2022/03/01 13:19:21;;;;;;;18.70;12.70;;;;;;;9.44;83.76;102779.50;10212300;29;20039;-83
2022/03/01 13:24:30;;;;;;;21.88;13.73;;;;;;;9.31;85.04;102769.25;10202580;29;20484;-83
2022/03/01 13:29:35;;;;;;;23.10;13.18;;;;;;;9.14;83.91;102776.13;10205777;29;20035;-86
2022/03/01 13:34:37;;;;;;;19.52;12.32;;;;;;;8.88;83.79;102774.81;10218923;29;20122;-84
2022/03/01 13:39:39;;;;;;;22.35;13.57;;;;;;;8.64;87.19;102756.81;10237942;29;20031;-81
2022/03/01 13:44:42;;;;;;;20.55;12.75;;;;;;;8.85;88.09;102777.97;10204004;29;20050;-83
2022/03/01 13:49:57;;;;;;;16.33;11.55;;;;;;;8.87;83.97;102757.47;10220364;29;20043;-83
2022/03/01 13:55:05;;;;;;;15.32;10.13;;;;;;;9.04;81.31;102765.44;10204024;29;20055;-81
2022/03/01 14:00:15;;;;;;;20.98;11.57;;;;;;;9.20;81.24;102764.28;10218946;29;20071;-83
2022/03/01 14:05:18;;;;;;;22.17;11.55;;;;;;;9.27;79.89;102746.81;10218460;29;20559;-82
2022/03/01 14:10:22;;;;;;;21.13;12.00;;;;;;;9.37;77.88;102740.13;10178226;29;20036;-83
2022/03/01 14:15:36;;;;;;;18.13;11.57;;;;;;;9.66;79.86;102739.06;10178752;29;20040;-83
2022/03/01 14:20:36;;;;;;;20.83;11.50;;;;;;;9.81;82.24;102736.16;10180926;29;20032;-82
2022/03/01 14:25:37;;;;;;;15.90;10.70;;;;;;;9.87;79.45;102727.09;10196051;29;20354;-83
2022/03/01 14:30:37;;;;;;;21.63;12.07;;;;;;;9.68;79.95;102739.69;10194223;29;20047;-83
2022/03/01 14:35:38;;;;;;;21.08;12.15;;;;;;;9.50;81.95;102735.56;10204702;29;20048;-83
2022/03/01 14:40:39;;;;;;;17.23;11.15;;;;;;;9.28;79.70;102728.41;10216220;29;20044;-83
2022/03/01 14:45:39;;;;;;;15.98;11.13;;;;;;;8.98;79.93;102720.38;10184405;29;20079;-83
2022/03/01 14:50:40;;;;;;;17.33;12.15;;;;;;;8.95;85.29;102742.78;10194258;29;20043;-83
2022/03/01 14:55:40;;;;;;;19.13;11.88;;;;;;;8.83;85.82;102736.94;10194908;29;20024;-83
2022/03/01 15:00:41;;;;;;;18.98;12.20;;;;;;;8.72;86.57;102733.88;10205130;29;20036;-83
2022/03/01 15:05:41;;;;;;;22.23;13.32;;;;;;;8.65;87.37;102731.91;10194902;29;20042;-83
2022/03/01 15:10:42;;;;;;;21.40;12.27;;;;;;;8.61;86.42;102748.97;10202176;29;20108;-83
2022/03/01 15:15:42;;;;;;;19.08;12.43;;;;;;;8.66;88.58;102754.72;10193086;29;20032;-83
2022/03/01 15:20:43;;;;;;;20.67;12.50;;;;;;;8.62;88.65;102739.69;10213871;29;20050;-83
2022/03/01 15:25:43;;;;;;;22.25;12.93;;;;;;;8.59;90.35;102732.69;10202768;29;20032;-83
2022/03/01 15:30:44;;;;;;;21.08;13.13;;;;;;;8.59;90.17;102732.69;10170171;29;20027;-82
2022/03/01 15:35:45;;;;;;;23.40;12.63;;;;;;;8.55;90.00;102745.09;10198384;29;20036;-83
2022/03/01 15:40:45;;;;;;;22.33;12.48;;;;;;;8.49;90.29;102748.63;10212606;29;20147;-83
2022/03/01 15:45:46;;;;;;;21.00;11.82;;;;;;;8.34;90.97;102740.41;10230649;29;20071;-82
2022/03/01 15:50:46;;;;;;;20.60;12.90;;;;;;;8.24;90.62;102750.84;10196156;29;20043;-83
2022/03/01 15:55:47;;;;;;;22.42;12.57;;;;;;;8.16;90.44;102748.22;10192695;29;20031;-84
2022/03/01 16:00:48;;;;;;;23.30;13.75;;;;;;;8.05;92.51;102738.59;10211755;29;20043;-84
2022/03/01 16:05:48;;;;;;;21.02;13.13;;;;;;;7.93;94.40;102742.88;10226069;29;20524;-84
2022/03/01 16:10:49;;;;;;;21.05;13.77;;;;;;;7.82;96.10;102750.53;10214301;29;20491;-83
2022/03/01 16:15:50;;;;;;;19.80;13.20;;;;;;;7.63;96.32;102737.41;10204745;29;20082;-83
2022/03/01 16:20:50;;;;;;;23.95;13.60;;;;;;;7.66;99.16;102756.22;10198339;29;20073;-83
2022/03/01 16:25:52;;;;;;;20.63;13.15;;;;;;;7.55;100.00;102759.44;10229979;29;20098;-83
2022/03/01 16:30:53;;;;;;;22.63;13.52;;;;;;;7.42;100.00;102758.19;10196910;29;20028;-84
2022/03/01 16:35:53;;;;;;;22.77;13.38;;;;;;;7.25;100.00;102765.69;10229238;29;20067;-85
2022/03/01 16:40:54;;;;;;;23.13;14.35;;;;;;;7.12;100.00;102765.50;10179600;29;20050;-85
2022/03/01 16:45:57;;;;;;;25.05;14.48;;;;;;;6.89;100.00;102753.72;10208597;29;20047;-85
2022/03/01 16:50:57;;;;;;;22.45;13.60;;;;;;;6.85;100.00;102777.88;10197528;29;20043;-82
2022/03/01 16:56:03;;;;;;;21.42;13.93;;;;;;;6.70;100.00;102771.47;10211352;29;20036;-83
2022/03/01 17:01:04;;;;;;;25.95;15.25;;;;;;;6.65;100.00;102786.53;10196574;29;20050;-82
2022/03/01 17:06:05;;;;;;;22.02;13.55;;;;;;;6.58;100.00;102777.38;10195321;29;20578;-83
2022/03/01 17:11:05;;;;;;;23.85;14.80;;;;;;;6.43;100.00;102769.09;10179102;29;20038;-83
2022/03/01 17:16:06;;;;;;;23.05;15.55;;;;;;;6.34;100.00;102769.31;10228319;29;20032;-83
2022/03/01 17:21:07;;;;;;;29.60;14.80;;;;;;;6.33;100.00;102781.31;10196346;29;20091;-83
2022/03/01 17:26:07;;;;;;;22.65;14.13;;;;;;;6.18;100.00;102776.59;10210956;29;20043;-83
2022/03/01 17:31:07;;;;;;;26.27;14.98;;;;;;;6.15;100.00;102798.81;10187896;29;20032;-83
2022/03/01 17:36:08;;;;;;;26.90;14.80;;;;;;;6.08;100.00;102786.88;10160354;29;20052;-83
2022/03/01 17:41:08;;;;;;;23.05;14.82;;;;;;;6.02;100.00;102793.06;10188100;29;20055;-81
2022/03/01 17:46:09;;;;;;;24.08;14.57;;;;;;;6.00;100.00;102789.66;10189490;29;20367;-82
2022/03/01 17:51:10;;;;;;;28.08;15.55;;;;;;;5.93;100.00;102799.53;10188910;29;20040;-83
2022/03/01 17:56:10;;;;;;;29.10;15.15;;;;;;;5.89;100.00;102804.53;10172237;29;20083;-83
2022/03/01 18:01:11;;;;;;;27.48;14.73;;;;;;;5.85;100.00;102798.56;10171898;29;20033;-83
2022/03/01 18:06:11;;;;;;;23.33;13.98;;;;;;;5.83;100.00;102800.63;10171902;29;20036;-84
2022/03/01 18:11:12;;;;;;;24.85;15.27;;;;;;;5.80;100.00;102805.56;10194102;29;20028;-83
2022/03/01 18:16:12;;;;;;;24.27;14.25;;;;;;;5.73;100.00;102793.66;10196666;29;20126;-81
2022/03/01 18:21:13;;;;;;;27.20;15.10;;;;;;;5.73;100.00;102793.66;10195542;29;20100;-82
2022/03/01 18:26:14;;;;;;;23.70;14.82;;;;;;;5.73;100.00;102791.75;10178238;29;20032;-82
2022/03/01 18:31:14;;;;;;;23.95;14.20;;;;;;;5.72;100.00;102794.66;10193928;29;20029;-81
2022/03/01 18:36:15;;;;;;;27.48;15.80;;;;;;;5.61;100.00;102777.59;10195155;29;20063;-82
2022/03/01 18:41:15;;;;;;;23.95;15.43;;;;;;;5.67;100.00;102800.66;10193562;29;20051;-82
2022/03/01 18:46:16;;;;;;;23.15;15.02;;;;;;;5.61;100.00;102799.47;10178423;29;20048;-82
2022/03/01 18:51:16;;;;;;;26.23;15.57;;;;;;;5.51;100.00;102785.13;10232032;29;20079;-82
2022/03/01 18:56:17;;;;;;;25.42;15.85;;;;;;;5.56;100.00;102801.00;10215531;29;20036;-82
2022/03/01 19:01:19;;;;;;;26.15;16.23;;;;;;;5.53;100.00;102793.16;10214895;29;20432;-82
2022/03/01 19:06:20;;;;;;;25.88;15.57;;;;;;;5.47;100.00;102790.09;10215079;29;20046;-82
2022/03/01 19:11:21;;;;;;;25.27;14.82;;;;;;;5.42;100.00;102781.56;10214256;29;20038;-82
2022/03/01 19:16:21;;;;;;;28.10;15.40;;;;;;;5.44;100.00;102785.00;10199748;29;20376;-81
2022/03/01 19:21:22;;;;;;;26.42;15.55;;;;;;;5.44;100.00;102789.59;10231792;29;20032;-82
2022/03/01 19:26:22;;;;;;;27.80;16.48;;;;;;;5.38;100.00;102784.84;10183105;29;20036;-82
2022/03/01 19:31:23;;;;;;;29.48;15.57;;;;;;;5.42;100.00;102797.97;10182517;29;20034;-82
2022/03/01 19:36:23;;;;;;;25.08;16.27;;;;;;;5.41;100.00;102796.25;10231096;29;20050;-82
2022/03/01 19:41:24;;;;;;;31.52;16.33;;;;;;;5.37;100.00;102799.50;10229752;29;20043;-83
2022/03/01 19:46:25;;;;;;;29.13;16.05;;;;;;;4.93;100.00;102748.84;10199229;29;20527;-81
2022/03/01 19:51:25;;;;;;;24.30;15.10;;;;;;;5.31;100.00;102800.19;10198175;29;20023;-81
2022/03/01 19:56:27;;;;;;;33.65;17.33;;;;;;;5.24;100.00;102794.56;10230108;29;20032;-82
2022/03/01 20:01:28;;;;;;;31.92;17.98;;;;;;;5.26;100.00;102797.97;10196880;29;20031;-82
2022/03/01 20:06:28;;;;;;;25.10;15.82;;;;;;;4.92;100.00;102752.63;10212562;29;20098;-82
2022/03/01 20:11:29;;;;;;;28.00;16.63;;;;;;;5.10;100.00;102803.44;10182213;29;20383;-82
2022/03/01 20:16:29;;;;;;;29.48;16.88;;;;;;;5.13;100.00;102812.16;10198852;29;20040;-81
2022/03/01 20:21:30;;;;;;;30.42;17.27;;;;;;;5.06;100.00;102802.94;10212687;29;20032;-82
2022/03/01 20:26:30;;;;;;;29.05;16.13;;;;;;;5.06;100.00;102813.84;10196486;29;20032;-81
2022/03/01 20:31:31;;;;;;;28.83;16.85;;;;;;;5.02;100.00;102802.44;10212354;29;20043;-81
2022/03/01 20:36:31;;;;;;;27.35;17.75;;;;;;;5.01;100.00;102811.63;10197042;29;20067;-82
2022/03/01 20:41:33;;;;;;;32.60;18.60;;;;;;;4.91;100.00;102804.63;10229799;29;20476;-80
2022/03/01 20:46:34;;;;;;;31.92;19.35;;;;;;;4.70;100.00;102775.97;10230600;29;20424;-81
2022/03/01 20:51:35;;;;;;;31.92;18.55;;;;;;;4.91;100.00;102816.41;10195246;29;20036;-82
2022/03/01 20:56:39;;;;;;;28.25;17.58;;;;;;;4.87;100.00;102820.50;10192197;29;20116;-82
2022/03/01 21:01:45;;;;;;;31.35;18.73;;;;;;;4.88;100.00;102821.34;10193259;29;20396;-82
2022/03/01 21:06:45;;;;;;;30.80;19.80;;;;;;;4.84;100.00;102820.84;10205230;29;20027;-82
2022/03/01 21:11:46;;;;;;;34.20;19.73;;;;;;;4.82;100.00;102828.34;10227022;29;20039;-82
2022/03/01 21:16:47;;;;;;;34.83;18.98;;;;;;;4.55;100.00;102807.66;10197163;29;20046;-82
2022/03/01 21:21:47;;;;;;;30.50;18.15;;;;;;;4.77;100.00;102838.91;10212273;29;20043;-81
2022/03/01 21:26:48;;;;;;;33.35;19.25;;;;;;;4.48;100.00;102792.97;10228804;29;20056;-81
2022/03/01 21:31:48;;;;;;;34.80;20.05;;;;;;;4.57;100.00;102798.28;10227285;29;20019;-83
2022/03/01 21:36:49;;;;;;;31.00;19.25;;;;;;;4.70;100.00;102829.69;10165976;29;20052;-83
2022/03/01 21:41:49;;;;;;;31.77;19.95;;;;;;;4.69;100.00;102827.97;10168123;29;20144;-82
2022/03/01 21:46:50;;;;;;;33.03;19.98;;;;;;;4.62;100.00;102817.72;10159308;29;20381;-82
2022/03/01 21:51:50;;;;;;;33.47;20.50;;;;;;;4.61;100.00;102821.47;10156576;29;20100;-82
2022/03/01 21:56:51;;;;;;;33.28;19.42;;;;;;;4.68;100.00;102834.47;10157681;29;20033;-82
2022/03/01 22:01:51;;;;;;;31.50;19.33;;;;;;;4.54;100.00;102814.13;10157806;29;20653;-83
2022/03/01 22:06:52;;;;;;;36.35;21.42;;;;;;;4.58;100.00;102821.81;10155899;29;20439;-82
2022/03/01 22:11:52;;;;;;;36.92;20.95;;;;;;;4.68;100.00;102829.00;10125556;29;20037;-82
2022/03/01 22:16:53;;;;;;;32.65;19.77;;;;;;;4.65;100.00;102822.84;10156698;29;20044;-82
2022/03/01 22:21:53;;;;;;;32.22;18.85;;;;;;;4.49;100.00;102806.44;10139753;29;20048;-82
2022/03/01 22:26:54;;;;;;;33.78;19.30;;;;;;;4.54;100.00;102814.13;10171108;29;20036;-82
2022/03/01 22:31:54;;;;;;;41.92;22.25;;;;;;;4.56;100.00;102823.84;10170858;29;20033;-83
2022/03/01 22:36:55;;;;;;;35.33;19.58;;;;;;;4.52;100.00;102822.47;10180053;29;20075;-82